Time;durP1;ratioP1;P1;durP2;ratioP2;P2;SDS_P1;SDS_P2;PMS_P1;PMS_P2;Temp;Humidity;BMP_temperature;BMP_pressure;BME280_temperature;BME280_humidity;BME280_pressure;Samples;Min_cycle;Max_cycle;Signal;HPM_P1;HPM_P2
2022/10/07 00:01:02;;;;;;;2.43;1.00;;;;;;;16.97;43.85;100017.50;4977853;28;20208;-86
2022/10/07 00:03:28;;;;;;;8.23;1.30;;;;;;;16.92;44.38;100011.66;4977583;28;20190;-86
2022/10/07 00:06:07;;;;;;;3.03;0.93;;;;;;;16.96;44.46;100015.78;4976495;28;20288;-86
2022/10/07 00:08:37;;;;;;;3.57;0.67;;;;;;;17.00;44.27;100014.66;4976512;28;20183;-86
2022/10/07 00:11:12;;;;;;;4.23;1.23;;;;;;;17.00;44.16;100007.56;4977668;28;20188;-86
2022/10/07 00:13:39;;;;;;;1.67;0.90;;;;;;;16.96;44.62;100007.84;4977310;28;20183;-86
2022/10/07 00:16:17;;;;;;;4.63;1.10;;;;;;;16.84;44.67;100009.50;4977549;28;20194;-86
2022/10/07 00:18:43;;;;;;;2.73;0.70;;;;;;;16.79;45.19;100016.88;4976306;28;20597;-86
2022/10/07 00:21:12;;;;;;;2.53;0.93;;;;;;;16.77;45.00;100007.34;4977199;28;20183;-85
2022/10/07 00:23:38;;;;;;;6.67;1.03;;;;;;;16.78;44.86;99999.28;4977166;28;20180;-86
2022/10/07 00:26:07;;;;;;;1.43;0.87;;;;;;;16.85;44.38;100010.34;4977613;28;20207;-86
2022/10/07 00:28:33;;;;;;;1.70;0.80;;;;;;;16.94;44.61;100004.44;4977090;28;20203;-86
2022/10/07 00:31:00;;;;;;;1.83;0.70;;;;;;;16.88;45.09;100002.19;4976096;28;20235;-86
2022/10/07 00:33:28;;;;;;;3.27;1.27;;;;;;;16.90;46.29;100000.31;4977333;28;20195;-86
2022/10/07 00:35:54;;;;;;;3.50;1.20;;;;;;;16.85;47.81;100000.59;4976283;28;20211;-86
2022/10/07 00:38:19;;;;;;;2.07;1.13;;;;;;;16.90;48.14;99998.47;4976938;28;20636;-86
2022/10/07 00:40:44;;;;;;;2.63;1.20;;;;;;;16.95;48.33;100000.84;4976930;28;20183;-86
2022/10/07 00:43:30;;;;;;;3.63;1.00;;;;;;;16.95;48.57;99988.47;4975910;28;20616;-86
2022/10/07 00:46:28;;;;;;;3.10;1.60;;;;;;;16.96;48.68;99986.66;4977026;28;20203;-86
2022/10/07 00:48:57;;;;;;;2.63;1.20;;;;;;;17.03;48.81;99985.31;4972390;28;20201;-86
2022/10/07 00:51:22;;;;;;;4.10;1.40;;;;;;;17.00;48.73;99983.72;4976874;28;20183;-86
2022/10/07 00:53:51;;;;;;;5.03;1.93;;;;;;;17.08;48.73;99985.88;4975749;28;20175;-86
2022/10/07 00:56:17;;;;;;;4.17;1.27;;;;;;;17.12;48.88;99976.75;4975651;28;20174;-86
2022/10/07 00:58:46;;;;;;;3.47;1.20;;;;;;;17.11;49.10;99977.72;4976484;28;20245;-86
2022/10/07 01:01:11;;;;;;;2.33;1.10;;;;;;;17.08;49.01;99972.63;4975504;28;20190;-86
2022/10/07 01:03:37;;;;;;;3.23;1.10;;;;;;;17.11;49.37;99975.06;4976456;28;20699;-87
2022/10/07 01:06:04;;;;;;;4.40;1.37;;;;;;;17.08;49.28;99972.63;4976373;28;20216;-85
2022/10/07 01:08:30;;;;;;;8.43;1.70;;;;;;;17.01;49.70;99972.16;4975347;28;20547;-88
2022/10/07 01:10:56;;;;;;;2.77;1.20;;;;;;;16.99;49.92;99973.22;4976288;28;20661;-88
2022/10/07 01:13:31;;;;;;;3.73;1.20;;;;;;;17.01;49.71;99968.66;4976253;28;20179;-87
2022/10/07 01:16:12;;;;;;;2.73;0.87;;;;;;;16.94;50.14;99970.00;4975259;28;20577;-87
2022/10/07 01:18:52;;;;;;;2.13;1.00;;;;;;;16.81;50.74;99961.16;4975482;28;20173;-86
2022/10/07 01:21:38;;;;;;;5.37;1.67;;;;;;;16.91;50.61;99972.88;4976672;28;20170;-86
2022/10/07 01:24:33;;;;;;;2.23;0.87;;;;;;;16.92;50.35;99977.22;4976362;28;20192;-86
2022/10/07 01:27:03;;;;;;;5.40;1.30;;;;;;;17.00;50.58;99970.47;4975032;28;20232;-87
2022/10/07 01:29:46;;;;;;;5.27;1.40;;;;;;;17.02;50.53;99973.88;4975823;28;20199;-86
2022/10/07 01:32:16;;;;;;;3.63;1.67;;;;;;;16.98;50.92;99969.72;4975882;28;20188;-87
2022/10/07 01:34:43;;;;;;;3.40;1.60;;;;;;;16.92;51.16;99969.28;4976382;28;20236;-87
2022/10/07 01:37:11;;;;;;;2.33;1.17;;;;;;;16.84;51.41;99967.13;4976108;28;20169;-87
2022/10/07 01:39:42;;;;;;;3.77;1.10;;;;;;;16.94;50.97;99967.38;4975722;28;20178;-88
2022/10/07 01:42:08;;;;;;;5.27;1.50;;;;;;;16.94;50.71;99965.56;4976019;28;20176;-86
2022/10/07 01:44:34;;;;;;;2.50;1.20;;;;;;;16.92;51.09;99970.13;4974732;28;20257;-88
2022/10/07 01:47:00;;;;;;;4.87;1.00;;;;;;;16.91;51.17;99972.88;4975435;28;20201;-87
2022/10/07 01:49:25;;;;;;;3.27;1.00;;;;;;;16.99;50.93;99974.06;4975581;28;20199;-87
2022/10/07 01:52:25;;;;;;;2.83;1.03;;;;;;;17.04;50.47;99974.63;4974633;28;20192;-85
2022/10/07 01:55:12;;;;;;;4.27;1.27;;;;;;;17.05;50.57;99967.53;4976088;28;20163;-87
2022/10/07 01:58:08;;;;;;;2.57;1.10;;;;;;;17.02;50.84;99971.22;4974561;28;20266;-87
2022/10/07 02:00:42;;;;;;;1.77;0.70;;;;;;;16.97;51.22;99969.81;4975413;28;20185;-87
2022/10/07 02:03:53;;;;;;;2.37;0.83;;;;;;;16.95;51.18;99972.59;4975621;28;20282;-87
2022/10/07 02:06:36;;;;;;;2.00;0.90;;;;;;;16.93;51.96;99970.94;4970002;28;20674;-86
2022/10/07 02:09:10;;;;;;;4.07;1.30;;;;;;;16.87;52.20;99966.09;4975503;28;20178;-87
2022/10/07 02:11:40;;;;;;;3.17;1.17;;;;;;;16.83;52.25;99968.06;4974233;28;20181;-87
2022/10/07 02:14:20;;;;;;;2.73;1.00;;;;;;;16.88;52.19;99968.63;4974183;28;20497;-87
2022/10/07 02:16:48;;;;;;;6.90;0.90;;;;;;;16.96;51.93;99965.47;4975377;28;20169;-86
2022/10/07 02:19:42;;;;;;;3.50;1.00;;;;;;;17.03;51.72;99969.44;4974121;28;20209;-87
2022/10/07 02:22:10;;;;;;;2.53;1.30;;;;;;;17.03;51.37;99969.44;4974022;28;20514;-87
2022/10/07 02:24:38;;;;;;;1.20;0.93;;;;;;;16.98;51.43;99972.34;4974969;28;20361;-87
2022/10/07 02:27:09;;;;;;;1.70;0.80;;;;;;;17.09;51.32;99964.56;4973936;28;20206;-86
2022/10/07 02:29:38;;;;;;;3.70;1.13;;;;;;;17.15;50.68;99965.97;4975223;28;20238;-86
2022/10/07 02:32:08;;;;;;;2.93;1.40;;;;;;;17.15;50.55;99976.56;4974903;28;20178;-87
2022/10/07 02:34:35;;;;;;;3.13;0.93;;;;;;;17.18;50.47;99971.06;4973911;28;20177;-86
2022/10/07 02:37:06;;;;;;;2.10;1.03;;;;;;;17.17;50.40;99964.91;4973857;28;20248;-87
2022/10/07 02:39:32;;;;;;;2.37;1.07;;;;;;;17.18;50.38;99976.34;4975064;28;20168;-87
2022/10/07 02:42:07;;;;;;;2.67;1.00;;;;;;;17.25;50.03;99975.00;4975037;28;20178;-87
2022/10/07 02:44:42;;;;;;;3.97;1.00;;;;;;;17.26;49.70;99967.91;4974048;28;20244;-87
2022/10/07 02:47:13;;;;;;;5.50;1.30;;;;;;;17.26;49.64;99975.84;4973622;28;20204;-87
2022/10/07 02:49:40;;;;;;;3.90;1.10;;;;;;;17.18;49.84;99981.66;4974726;28;20578;-87
2022/10/07 02:52:13;;;;;;;2.93;0.90;;;;;;;17.11;49.50;99975.06;4973601;28;20206;-87
2022/10/07 02:54:50;;;;;;;2.07;0.77;;;;;;;17.01;49.50;99976.59;4974804;28;20229;-86
2022/10/07 02:57:18;;;;;;;4.53;1.40;;;;;;;16.97;49.58;99973.31;4975061;28;20177;-86
2022/10/07 02:59:47;;;;;;;2.43;1.20;;;;;;;16.94;49.81;99970.88;4973045;28;20186;-86
2022/10/07 03:02:20;;;;;;;1.77;0.93;;;;;;;16.85;49.76;99973.28;4974463;28;20206;-86
2022/10/07 03:04:47;;;;;;;1.80;1.10;;;;;;;16.84;49.58;99967.13;4973794;28;20640;-86
2022/10/07 03:07:12;;;;;;;2.33;1.27;;;;;;;16.90;49.55;99971.19;4973537;28;20607;-87
2022/10/07 03:09:39;;;;;;;2.63;1.00;;;;;;;16.92;49.27;99972.78;4974322;28;20177;-86
2022/10/07 03:12:04;;;;;;;2.57;1.13;;;;;;;16.93;49.24;99970.94;4974288;28;20177;-87
2022/10/07 03:14:33;;;;;;;2.67;1.00;;;;;;;16.93;49.40;99982.41;4973329;28;20217;-86
2022/10/07 03:16:58;;;;;;;3.13;0.83;;;;;;;16.94;49.25;99970.00;4973601;28;20239;-87
2022/10/07 03:19:24;;;;;;;2.33;1.00;;;;;;;16.84;49.75;99971.56;4974735;28;20177;-87
2022/10/07 03:21:49;;;;;;;3.10;1.20;;;;;;;16.91;49.70;99975.50;4973216;28;20186;-86
2022/10/07 03:24:15;;;;;;;2.33;1.00;;;;;;;16.99;49.37;99982.00;4973234;28;20273;-86
2022/10/07 03:26:41;;;;;;;4.07;1.07;;;;;;;16.97;49.42;99983.06;4973642;28;20198;-86
2022/10/07 03:29:07;;;;;;;4.10;0.90;;;;;;;17.05;49.23;99976.31;4974037;28;20584;-86
2022/10/07 03:31:32;;;;;;;1.47;0.80;;;;;;;17.08;49.11;99975.28;4974505;28;20170;-86
2022/10/07 03:33:58;;;;;;;3.40;0.97;;;;;;;17.15;48.79;99989.81;4973190;28;20187;-86
2022/10/07 03:36:23;;;;;;;1.47;0.80;;;;;;;17.15;48.56;99980.06;4974469;28;20202;-86
2022/10/07 03:38:50;;;;;;;3.87;1.00;;;;;;;17.17;48.41;99980.81;4974404;28;20643;-86
2022/10/07 03:41:16;;;;;;;4.07;1.20;;;;;;;17.22;48.41;99977.00;4974420;28;20183;-86
2022/10/07 03:43:42;;;;;;;4.10;1.17;;;;;;;17.23;48.37;99978.69;4973143;28;20190;-86
2022/10/07 03:46:08;;;;;;;2.43;1.00;;;;;;;17.18;48.06;99979.00;4974046;28;20222;-86
2022/10/07 03:48:33;;;;;;;1.87;0.83;;;;;;;17.22;48.12;99980.50;4973085;28;20190;-86
2022/10/07 03:50:59;;;;;;;2.33;1.20;;;;;;;17.29;47.86;99987.09;4974012;28;20264;-87
2022/10/07 03:53:28;;;;;;;6.17;1.17;;;;;;;17.36;47.50;99971.63;4974036;28;20210;-86
2022/10/07 03:55:54;;;;;;;2.17;0.87;;;;;;;17.32;47.80;99986.03;4974247;28;20270;-86
2022/10/07 03:58:19;;;;;;;3.43;1.47;;;;;;;17.27;47.84;99975.72;4973058;28;20222;-86
2022/10/07 04:00:45;;;;;;;2.47;1.13;;;;;;;17.27;47.33;99986.34;4974190;28;20244;-86
2022/10/07 04:03:12;;;;;;;2.47;1.17;;;;;;;17.24;47.65;99981.25;4973913;28;20180;-86
2022/10/07 04:05:37;;;;;;;2.63;0.73;;;;;;;17.24;47.41;99981.25;4974264;28;20258;-86
2022/10/07 04:08:06;;;;;;;2.87;0.70;;;;;;;17.30;47.00;99980.84;4974094;28;20184;-86
2022/10/07 04:10:32;;;;;;;3.67;1.20;;;;;;;17.30;46.68;99986.13;4974222;28;20185;-86
2022/10/07 04:12:58;;;;;;;2.60;1.20;;;;;;;17.26;46.81;99987.31;4977910;28;20202;-86
2022/10/07 04:15:23;;;;;;;2.63;1.00;;;;;;;17.23;46.96;99984.84;4977177;28;20599;-86
2022/10/07 04:17:57;;;;;;;3.27;1.40;;;;;;;17.15;46.57;99985.34;4976313;28;20512;-86
2022/10/07 04:20:23;;;;;;;6.63;1.03;;;;;;;17.06;46.75;99990.38;4977530;28;20251;-87
2022/10/07 04:22:48;;;;;;;3.67;1.07;;;;;;;17.06;46.46;99978.00;4976171;28;20187;-86
2022/10/07 04:25:32;;;;;;;2.67;1.27;;;;;;;17.09;46.11;99991.06;4976218;28;20182;-87
2022/10/07 04:27:59;;;;;;;2.07;0.87;;;;;;;17.00;46.07;99988.16;4977640;28;20165;-86
2022/10/07 04:30:26;;;;;;;5.37;2.07;;;;;;;16.90;46.18;99987.91;4976978;28;20298;-86
2022/10/07 04:32:52;;;;;;;3.17;1.43;;;;;;;16.87;46.35;99993.41;4976060;28;20621;-86
2022/10/07 04:35:19;;;;;;;3.23;1.10;;;;;;;16.90;46.00;99997.66;4976022;28;20186;-85
2022/10/07 04:37:47;;;;;;;3.23;1.10;;;;;;;16.89;45.82;99994.16;4976002;28;20179;-86
2022/10/07 04:40:13;;;;;;;3.63;1.20;;;;;;;16.86;45.70;99993.50;4976446;28;20243;-86
2022/10/07 04:45:23;;;;;;;3.47;1.23;;;;;;;16.90;45.91;99993.19;4977074;28;20534;-86
2022/10/07 04:47:48;;;;;;;3.63;1.23;;;;;;;16.92;45.63;99988.66;4976911;28;20214;-86
2022/10/07 04:50:14;;;;;;;2.73;0.97;;;;;;;16.78;46.20;100001.94;4976691;28;20180;-86
2022/10/07 04:52:42;;;;;;;3.90;1.00;;;;;;;16.66;46.35;100000.09;4977162;28;20179;-85
2022/10/07 04:55:11;;;;;;;3.73;1.70;;;;;;;16.70;46.69;99996.28;4976581;28;20181;-86
2022/10/07 04:57:37;;;;;;;3.37;1.43;;;;;;;16.65;46.45;100008.09;4976547;28;20190;-87
2022/10/07 05:00:04;;;;;;;2.43;1.07;;;;;;;16.68;46.32;100002.63;4975088;28;20188;-87
2022/10/07 05:02:30;;;;;;;2.57;1.00;;;;;;;16.78;46.23;99998.44;4975149;28;20194;-87
2022/10/07 05:04:55;;;;;;;3.00;1.37;;;;;;;16.80;46.27;99991.22;4976264;28;20179;-87
2022/10/07 05:07:20;;;;;;;2.70;1.27;;;;;;;16.83;46.41;99991.91;4974960;28;20555;-87
2022/10/07 05:09:46;;;;;;;4.33;1.30;;;;;;;16.83;46.45;100004.28;4981000;28;20587;-87
2022/10/07 05:12:11;;;;;;;4.53;1.37;;;;;;;16.91;46.63;99994.91;4976203;28;20187;-86
2022/10/07 05:14:36;;;;;;;2.33;0.90;;;;;;;16.97;46.90;99998.97;4991163;28;20183;-87
2022/10/07 05:17:03;;;;;;;6.13;1.30;;;;;;;17.15;46.34;99998.59;4991803;28;20192;-87
2022/10/07 05:19:29;;;;;;;4.13;1.30;;;;;;;17.27;46.19;100004.06;4995366;28;20179;-87
2022/10/07 05:21:54;;;;;;;1.73;0.80;;;;;;;17.34;45.99;100005.34;4994010;28;20602;-87
2022/10/07 05:24:20;;;;;;;1.97;0.93;;;;;;;17.44;45.70;100004.63;4994343;28;20198;-87
2022/10/07 05:26:45;;;;;;;2.40;1.13;;;;;;;17.47;45.13;100006.22;4994134;28;20284;-87
2022/10/07 05:29:11;;;;;;;4.43;1.00;;;;;;;17.54;45.02;100005.72;4994120;28;20264;-87
2022/10/07 05:31:36;;;;;;;1.53;0.80;;;;;;;17.51;44.54;100013.84;4994184;28;20174;-87
2022/10/07 05:34:01;;;;;;;3.90;1.40;;;;;;;17.58;44.28;100004.56;4995146;28;20175;-87
2022/10/07 05:36:27;;;;;;;3.17;1.47;;;;;;;17.62;44.52;100010.50;4995087;28;20248;-87
2022/10/07 05:38:56;;;;;;;9.43;1.17;;;;;;;17.67;43.98;100009.25;4995017;28;20221;-87
2022/10/07 05:41:23;;;;;;;2.27;1.13;;;;;;;17.70;43.67;100006.41;4994827;28;20258;-87
2022/10/07 05:43:48;;;;;;;3.10;1.00;;;;;;;17.75;43.71;100004.28;4994995;28;20179;-87
2022/10/07 05:46:16;;;;;;;1.90;1.00;;;;;;;17.89;43.22;100011.31;4993900;28;20217;-87
2022/10/07 05:48:46;;;;;;;3.80;1.20;;;;;;;17.96;42.91;100011.72;4993808;28;20278;-87
2022/10/07 05:51:16;;;;;;;2.30;1.00;;;;;;;18.00;42.65;100013.22;4994749;28;20199;-87
2022/10/07 05:53:41;;;;;;;3.23;1.47;;;;;;;18.08;42.72;100010.88;4994785;28;20627;-87
2022/10/07 05:56:11;;;;;;;3.10;1.03;;;;;;;18.14;42.17;100015.75;4994842;28;20255;-86
2022/10/07 05:58:37;;;;;;;3.20;1.03;;;;;;;18.10;41.64;100014.28;4993889;28;20624;-87
2022/10/07 06:01:08;;;;;;;2.40;1.10;;;;;;;18.04;41.84;100025.31;4994678;28;20175;-86
2022/10/07 06:03:33;;;;;;;0.97;0.60;;;;;;;18.11;41.78;100031.88;4994514;28;20291;-87
2022/10/07 06:05:59;;;;;;;1.50;0.80;;;;;;;18.24;41.90;100032.72;4993814;28;20290;-86
2022/10/07 06:08:25;;;;;;;1.07;0.60;;;;;;;18.32;41.81;100027.72;4993508;28;20179;-87
2022/10/07 06:13:35;;;;;;;5.70;1.13;;;;;;;18.13;40.92;100033.47;4994619;28;20185;-87
2022/10/07 06:16:06;;;;;;;2.70;0.70;;;;;;;18.25;40.49;100029.13;4994318;28;20167;-86
2022/10/07 06:18:32;;;;;;;1.77;0.63;;;;;;;18.31;40.69;100031.34;4984311;28;20175;-86
2022/10/07 06:20:59;;;;;;;1.63;0.70;;;;;;;18.45;40.80;100025.91;4989920;28;20219;-87
2022/10/07 06:23:26;;;;;;;1.90;0.93;;;;;;;18.56;40.57;100023.38;4974527;28;20230;-87
2022/10/07 06:25:55;;;;;;;7.40;1.60;;;;;;;18.35;41.22;100027.50;4974732;28;20212;-87
2022/10/07 06:28:22;;;;;;;2.93;1.10;;;;;;;18.46;40.71;100038.22;4974761;28;20263;-87
2022/10/07 06:30:47;;;;;;;2.30;0.70;;;;;;;18.68;41.02;100026.97;4974417;28;20199;-87
2022/10/07 06:33:13;;;;;;;2.20;0.90;;;;;;;18.81;41.23;100026.00;4974039;28;20505;-87
2022/10/07 06:35:38;;;;;;;4.13;1.07;;;;;;;18.80;40.35;100034.06;4974199;28;20199;-86
2022/10/07 06:38:05;;;;;;;2.90;1.23;;;;;;;18.73;40.92;100036.31;4974448;28;20175;-87
2022/10/07 06:40:30;;;;;;;4.50;1.27;;;;;;;18.81;40.72;100028.66;4973582;28;20559;-87
2022/10/07 06:42:56;;;;;;;3.30;1.10;;;;;;;19.09;40.94;100029.28;4974333;28;20196;-87
2022/10/07 06:45:22;;;;;;;3.87;1.00;;;;;;;19.28;40.69;100037.59;4973164;28;20180;-87
2022/10/07 06:47:47;;;;;;;5.37;1.30;;;;;;;19.35;40.34;100038.84;4973296;28;20662;-86
2022/10/07 06:50:13;;;;;;;5.03;1.27;;;;;;;19.38;40.06;100033.31;4974264;28;20181;-88
2022/10/07 06:52:39;;;;;;;2.03;0.70;;;;;;;19.47;40.05;100043.28;4974132;28;20176;-87
2022/10/07 06:55:06;;;;;;;4.17;1.00;;;;;;;19.46;39.39;100038.94;4973255;28;20184;-88
2022/10/07 06:57:32;;;;;;;4.63;1.23;;;;;;;19.39;38.79;100040.34;4973053;28;20185;-88
2022/10/07 06:59:59;;;;;;;3.87;1.20;;;;;;;19.38;39.32;100033.31;4974272;28;20176;-87
2022/10/07 07:02:26;;;;;;;2.07;0.83;;;;;;;19.37;39.46;100036.91;4973160;28;20565;-87
2022/10/07 07:04:51;;;;;;;1.73;0.70;;;;;;;19.54;39.52;100036.53;4974026;28;20181;-86
2022/10/07 07:07:17;;;;;;;2.27;1.20;;;;;;;19.59;38.62;100037.03;4973860;28;20213;-87
2022/10/07 07:09:42;;;;;;;1.63;0.70;;;;;;;19.68;38.91;100033.66;4973061;28;20629;-87
2022/10/07 07:12:08;;;;;;;2.00;1.03;;;;;;;19.73;38.76;100025.38;4973100;28;20622;-87
2022/10/07 07:14:35;;;;;;;1.77;0.87;;;;;;;19.95;38.56;100028.06;4973929;28;20640;-86
2022/10/07 07:17:01;;;;;;;2.97;1.20;;;;;;;20.07;38.31;100025.31;4974001;28;20259;-87
2022/10/07 07:19:26;;;;;;;1.20;0.70;;;;;;;20.13;38.39;100023.97;4973826;28;20258;-87
2022/10/07 07:21:51;;;;;;;1.77;0.90;;;;;;;20.45;38.97;100022.34;4972964;28;20176;-87
2022/10/07 07:24:17;;;;;;;3.40;1.00;;;;;;;20.80;38.36;100016.88;4974000;28;20208;-86
2022/10/07 07:26:43;;;;;;;5.00;1.30;;;;;;;20.97;37.22;100027.00;4973692;28;20204;-88
2022/10/07 07:29:11;;;;;;;1.60;0.83;;;;;;;21.22;37.59;100018.75;4972794;28;20183;-87
2022/10/07 07:31:36;;;;;;;2.57;0.83;;;;;;;21.53;36.80;100022.38;4973727;28;20250;-88
2022/10/07 07:34:06;;;;;;;2.60;0.97;;;;;;;21.75;37.02;100024.09;4973916;28;20626;-88
2022/10/07 07:36:35;;;;;;;2.10;0.97;;;;;;;21.80;36.57;100017.34;4972860;28;20176;-88
2022/10/07 07:39:04;;;;;;;2.70;0.87;;;;;;;21.94;35.89;100016.22;4973794;28;20275;-88
2022/10/07 07:41:33;;;;;;;2.80;1.03;;;;;;;22.06;35.84;100015.19;4989043;28;20564;-86
2022/10/07 07:44:01;;;;;;;3.17;0.80;;;;;;;22.00;35.83;100008.53;4973696;28;20195;-87
2022/10/07 07:46:31;;;;;;;3.47;0.83;;;;;;;22.10;35.57;100011.25;4976954;28;20573;-86
2022/10/07 07:48:57;;;;;;;2.53;1.07;;;;;;;22.21;36.15;100011.19;4977511;28;20549;-87
2022/10/07 07:51:23;;;;;;;2.13;1.10;;;;;;;22.47;35.44;99999.06;4977277;28;20176;-87
2022/10/07 07:53:49;;;;;;;3.50;1.30;;;;;;;22.34;35.63;100003.81;4993371;28;20184;-87
2022/10/07 07:56:15;;;;;;;3.07;1.03;;;;;;;22.62;35.90;100002.19;4992578;28;20184;-86
2022/10/07 07:58:41;;;;;;;2.40;1.03;;;;;;;22.62;35.12;99992.41;4976346;28;20649;-87
2022/10/07 08:01:14;;;;;;;6.03;1.10;;;;;;;22.62;35.25;100002.19;4977331;28;20184;-86
2022/10/07 08:03:42;;;;;;;1.90;1.03;;;;;;;22.80;35.21;99991.75;4976207;28;20192;-86
2022/10/07 08:06:10;;;;;;;3.60;1.40;;;;;;;22.64;35.09;100005.66;4976155;28;20204;-86
2022/10/07 08:08:36;;;;;;;2.80;1.67;;;;;;;22.63;35.10;99999.44;4977129;28;20346;-87
2022/10/07 08:11:15;;;;;;;3.93;1.33;;;;;;;22.59;35.53;99999.81;4976192;28;20626;-86
2022/10/07 08:13:40;;;;;;;8.97;1.87;;;;;;;22.59;35.42;99995.31;4992337;28;20197;-87
2022/10/07 08:16:17;;;;;;;2.20;0.90;;;;;;;22.64;35.12;99990.44;4976376;28;20552;-87
2022/10/07 08:18:45;;;;;;;1.97;0.80;;;;;;;22.55;35.32;99991.22;4976887;28;20187;-88
2022/10/07 08:21:11;;;;;;;3.03;1.00;;;;;;;22.63;35.33;99988.75;4976990;28;20315;-88
2022/10/07 08:23:37;;;;;;;1.67;0.90;;;;;;;22.72;34.93;99987.06;4976727;28;20267;-88
2022/10/07 08:26:03;;;;;;;2.43;1.17;;;;;;;22.74;35.07;99989.63;4977055;28;20207;-86
2022/10/07 08:28:30;;;;;;;3.10;1.60;;;;;;;22.73;35.49;99988.78;4976872;28;20180;-86
2022/10/07 08:31:07;;;;;;;2.57;0.80;;;;;;;22.71;34.97;99982.72;4976661;28;20225;-86
2022/10/07 08:33:35;;;;;;;2.20;1.17;;;;;;;23.06;34.98;99982.22;4976572;28;20207;-88
2022/10/07 08:36:02;;;;;;;5.07;1.33;;;;;;;23.12;34.54;99974.47;4975718;28;20191;-87
2022/10/07 08:38:36;;;;;;;3.00;1.00;;;;;;;23.12;34.41;99968.28;4991873;28;20181;-88
2022/10/07 08:41:24;;;;;;;2.40;1.10;;;;;;;23.10;35.16;99967.59;4975565;28;20234;-86
2022/10/07 08:43:50;;;;;;;2.57;0.87;;;;;;;23.31;34.97;99960.28;4976712;28;20161;-88
2022/10/07 08:46:26;;;;;;;2.63;1.00;;;;;;;23.56;34.20;99949.00;4976509;28;20204;-87
2022/10/07 08:48:57;;;;;;;4.20;1.53;;;;;;;23.60;33.62;99957.59;4975456;28;20775;-86
2022/10/07 08:51:56;;;;;;;4.00;0.90;;;;;;;23.96;33.59;99959.50;4975471;28;20157;-88
2022/10/07 08:54:29;;;;;;;3.83;1.60;;;;;;;23.87;33.35;99956.84;4949981;28;20196;-89
2022/10/07 08:57:21;;;;;;;4.53;1.60;;;;;;;24.22;32.80;99949.84;4974623;28;20199;-88
2022/10/07 08:59:55;;;;;;;5.63;2.67;;;;;;;24.25;33.22;99944.19;4991880;28;20326;-88
2022/10/07 09:02:58;;;;;;;2.93;1.30;;;;;;;24.47;33.05;99950.16;4991707;28;20279;-88
2022/10/07 09:05:31;;;;;;;1.90;0.80;;;;;;;24.67;32.65;99933.81;4975409;28;20210;-88
2022/10/07 09:08:03;;;;;;;3.17;1.20;;;;;;;24.54;32.56;99944.06;4991305;28;20208;-88
2022/10/07 09:10:35;;;;;;;4.30;1.30;;;;;;;24.79;32.39;99931.81;4976388;28;20227;-91
2022/10/07 09:13:19;;;;;;;4.97;1.20;;;;;;;24.93;32.16;99929.44;4976168;28;20203;-87
2022/10/07 09:16:06;;;;;;;3.83;1.67;;;;;;;25.21;31.88;99926.69;4974008;28;20188;-89
2022/10/07 09:18:49;;;;;;;1.90;0.93;;;;;;;25.48;32.09;99923.91;4975998;28;20160;-88
2022/10/07 09:21:24;;;;;;;2.50;1.13;;;;;;;25.75;30.71;99925.59;4975961;28;20169;-89
2022/10/07 09:24:19;;;;;;;3.13;0.93;;;;;;;25.96;31.18;99918.00;4987366;28;20184;-89
2022/10/07 09:26:46;;;;;;;2.40;0.87;;;;;;;26.14;30.65;99908.06;4961354;28;20226;-89
2022/10/07 09:29:12;;;;;;;3.43;1.50;;;;;;;26.11;30.56;99911.88;4968806;28;20186;-88
2022/10/07 09:31:39;;;;;;;2.37;0.70;;;;;;;26.27;30.18;99904.91;4974480;28;20181;-89
2022/10/07 09:34:05;;;;;;;2.17;0.80;;;;;;;26.28;30.45;99912.00;4975581;28;20208;-87
2022/10/07 09:36:30;;;;;;;2.17;1.03;;;;;;;26.26;30.48;99897.88;4974665;28;20177;-88
2022/10/07 09:39:21;;;;;;;5.50;1.13;;;;;;;26.23;30.31;99899.88;4975467;28;20184;-87
2022/10/07 09:41:47;;;;;;;5.47;1.30;;;;;;;26.27;29.97;99896.84;4990705;28;20207;-88
2022/10/07 09:44:16;;;;;;;2.03;0.87;;;;;;;26.22;29.97;99891.97;4974524;28;20203;-87
2022/10/07 09:47:12;;;;;;;3.10;0.83;;;;;;;26.05;29.97;99882.97;4975266;28;20200;-88
2022/10/07 09:49:50;;;;;;;1.77;0.87;;;;;;;26.46;30.18;99889.38;4973923;28;20192;-88
2022/10/07 09:52:24;;;;;;;1.93;0.70;;;;;;;26.44;29.72;99882.47;4974667;28;20185;-88
2022/10/07 09:54:55;;;;;;;1.17;0.67;;;;;;;26.47;29.48;99874.91;4974194;28;20180;-87
2022/10/07 09:57:34;;;;;;;1.73;0.60;;;;;;;26.72;29.38;99867.75;4975075;28;20259;-86
2022/10/07 10:00:16;;;;;;;1.87;0.80;;;;;;;26.99;28.32;99869.34;4975670;28;20164;-88
2022/10/07 10:03:06;;;;;;;3.60;1.20;;;;;;;26.94;28.95;99866.31;4974050;28;20216;-87
2022/10/07 10:05:56;;;;;;;4.40;0.93;;;;;;;26.98;28.87;99855.03;4974277;28;20180;-88
2022/10/07 10:08:29;;;;;;;2.43;1.00;;;;;;;26.90;28.91;99855.03;4975453;28;20177;-88
2022/10/07 10:10:56;;;;;;;7.23;1.33;;;;;;;27.01;28.31;99849.31;4974842;28;20255;-88
2022/10/07 10:13:33;;;;;;;3.33;0.97;;;;;;;26.96;29.04;99843.59;4973757;28;20177;-88
2022/10/07 10:16:00;;;;;;;2.37;0.87;;;;;;;26.76;28.55;99843.03;4974304;28;20263;-86
2022/10/07 10:18:40;;;;;;;2.80;0.90;;;;;;;26.84;28.95;99835.00;4973487;28;20239;-88
2022/10/07 10:21:28;;;;;;;1.40;0.60;;;;;;;27.05;29.10;99826.44;4973252;28;20184;-87
2022/10/07 10:24:05;;;;;;;2.73;1.00;;;;;;;27.28;28.16;99824.72;4974954;28;20176;-87
2022/10/07 10:26:49;;;;;;;3.00;0.70;;;;;;;27.14;27.44;99827.28;4975223;28;20196;-88
2022/10/07 10:29:34;;;;;;;2.27;0.90;;;;;;;26.96;27.40;99826.63;4973860;28;20190;-88
2022/10/07 10:32:00;;;;;;;2.20;0.83;;;;;;;27.14;28.24;99814.66;4975384;28;20203;-89
2022/10/07 10:34:50;;;;;;;2.83;1.03;;;;;;;27.24;27.49;99811.78;4973833;28;20267;-88
2022/10/07 10:37:23;;;;;;;1.47;0.70;;;;;;;27.27;27.21;99814.97;4974857;28;20175;-88
2022/10/07 10:40:07;;;;;;;1.60;0.67;;;;;;;27.29;26.84;99802.19;4974622;28;20184;-90
2022/10/07 10:42:51;;;;;;;3.13;0.80;;;;;;;27.23;27.34;99789.41;4973731;28;20177;-88
2022/10/07 10:45:51;;;;;;;2.53;0.90;;;;;;;27.43;26.96;99785.38;4974905;28;20218;-90
2022/10/07 10:48:52;;;;;;;5.90;0.88;;;;;;;27.63;26.82;99783.09;4973655;28;20200;-89
2022/10/07 10:51:32;;;;;;;1.57;0.70;;;;;;;28.01;26.35;99773.34;4974833;28;20173;-88
2022/10/07 10:54:36;;;;;;;2.35;0.73;;;;;;;28.16;26.08;99774.31;4973572;28;20184;-89
2022/10/07 10:57:35;;;;;;;2.78;0.95;;;;;;;28.14;26.00;99775.50;4974285;28;20187;-88
2022/10/07 11:00:14;;;;;;;2.38;0.90;;;;;;;28.10;26.26;99766.06;4974361;28;20168;-89
2022/10/07 11:03:16;;;;;;;1.80;0.60;;;;;;;28.18;26.36;99760.63;4973463;28;20168;-88
2022/10/07 11:05:43;;;;;;;2.53;0.80;;;;;;;28.26;26.16;99763.28;4972963;28;20195;-88
2022/10/07 11:08:16;;;;;;;1.77;0.60;;;;;;;28.16;26.10;99754.59;4973373;28;20192;-90
2022/10/07 11:10:54;;;;;;;2.15;1.38;;;;;;;28.35;26.27;99746.91;4974187;28;20176;-88
2022/10/07 11:13:31;;;;;;;2.40;0.68;;;;;;;28.46;25.76;99746.47;4974650;28;20199;-88
2022/10/07 11:16:29;;;;;;;1.83;0.75;;;;;;;28.72;25.48;99740.72;4974569;28;20231;-90
2022/10/07 11:19:00;;;;;;;3.78;0.70;;;;;;;29.00;25.12;99730.19;4973455;28;20196;-90
2022/10/07 11:21:29;;;;;;;1.77;0.60;;;;;;;28.94;24.75;99737.16;4972920;28;20177;-88
2022/10/07 11:23:59;;;;;;;1.77;0.80;;;;;;;29.10;24.90;99722.66;4973550;28;20305;-88
2022/10/07 11:26:34;;;;;;;1.70;0.60;;;;;;;29.13;24.95;99708.78;4973385;28;20537;-88
2022/10/07 11:29:12;;;;;;;1.85;0.85;;;;;;;29.30;24.77;99709.50;4973282;28;20279;-86
2022/10/07 11:31:43;;;;;;;1.00;0.50;;;;;;;29.28;23.31;99701.56;4974273;28;20211;-87
2022/10/07 11:34:29;;;;;;;2.13;0.80;;;;;;;29.36;24.21;99696.06;4973479;28;20173;-87
2022/10/07 11:37:16;;;;;;;1.52;0.68;;;;;;;28.99;24.98;99696.09;4973230;28;20251;-88
2022/10/07 11:39:41;;;;;;;3.65;1.55;;;;;;;28.58;25.77;99696.47;4974666;28;20174;-88
2022/10/07 11:42:15;;;;;;;1.13;0.60;;;;;;;29.03;25.70;99692.03;4974074;28;20689;-88
2022/10/07 11:45:04;;;;;;;2.58;0.95;;;;;;;28.87;23.24;99689.50;4973164;28;20169;-93
2022/10/07 11:47:35;;;;;;;1.40;0.40;;;;;;;29.18;22.75;99679.34;4973018;28;20192;-89
2022/10/07 11:50:24;;;;;;;3.28;0.70;;;;;;;29.39;22.83;99670.53;4973991;28;20165;-88
2022/10/07 11:52:53;;;;;;;1.98;0.57;;;;;;;29.55;22.38;99671.19;4974519;28;20570;-88
2022/10/07 11:55:24;;;;;;;1.38;0.60;;;;;;;29.45;21.93;99669.78;4973886;28;20590;-90
2022/10/07 11:57:58;;;;;;;1.08;0.45;;;;;;;29.50;21.98;99672.75;4972963;28;20171;-90